createdAt,value
2023-04-06T00:04:17.956Z,10.55
2023-04-06T00:09:15.251Z,10.00
2023-04-06T00:14:12.201Z,10.07
2023-04-06T00:19:09.369Z,10.60
2023-04-06T00:24:07.417Z,11.50
2023-04-06T00:29:04.368Z,10.82
2023-04-06T00:34:01.207Z,10.85
2023-04-06T00:38:58.261Z,10.77
2023-04-06T00:43:56.114Z,10.18
2023-04-06T00:48:53.146Z,9.57
2023-04-06T00:53:50.103Z,9.43
2023-04-06T00:58:47.448Z,10.25
2023-04-06T01:03:49.309Z,9.77
2023-04-06T01:08:48.058Z,9.95
2023-04-06T01:13:49.979Z,10.65
2023-04-06T01:18:56.573Z,10.13
2023-04-06T01:23:59.134Z,9.48
2023-04-06T01:29:04.325Z,9.52
2023-04-06T01:34:01.502Z,9.60
2023-04-06T01:38:59.368Z,9.27
2023-04-06T01:44:03.585Z,9.47
2023-04-06T01:49:02.355Z,9.35
2023-04-06T01:54:08.285Z,8.80
2023-04-06T01:59:20.556Z,9.73
2023-04-06T02:04:17.785Z,10.27
2023-04-06T02:09:18.172Z,8.77
2023-04-06T02:14:15.512Z,10.30
2023-04-06T02:19:18.842Z,8.85
2023-04-06T02:24:15.856Z,9.77
2023-04-06T02:29:13.710Z,8.60
2023-04-06T02:34:12.488Z,9.35
2023-04-06T02:39:13.344Z,8.77
2023-04-06T02:44:10.429Z,10.18
2023-04-06T02:49:12.513Z,9.88
2023-04-06T02:54:10.435Z,9.30
2023-04-06T02:59:07.632Z,10.13
2023-04-06T03:04:04.827Z,9.70
2023-04-06T03:09:03.469Z,9.85
2023-04-06T03:14:02.530Z,9.30
2023-04-06T03:18:59.707Z,10.25
2023-04-06T03:23:57.004Z,13.30
2023-04-06T03:28:58.077Z,9.93
2023-04-06T03:34:00.261Z,9.25
2023-04-06T03:39:01.763Z,9.73
2023-04-06T03:44:02.363Z,10.73
2023-04-06T03:49:01.194Z,9.95
2023-04-06T03:53:59.753Z,10.10
2023-04-06T03:58:57.057Z,9.40
2023-04-06T04:03:55.431Z,10.43
2023-04-06T04:08:52.466Z,12.23
2023-04-06T04:13:49.607Z,10.55
2023-04-06T04:18:48.528Z,11.40
2023-04-06T04:23:49.166Z,10.75
2023-04-06T04:28:46.452Z,10.93
2023-04-06T04:33:45.357Z,11.57
2023-04-06T04:38:53.797Z,11.88
2023-04-06T04:43:51.122Z,11.82
2023-04-06T04:48:54.204Z,11.02
2023-04-06T04:53:52.438Z,12.70
2023-04-06T04:58:57.115Z,12.00
2023-04-06T05:03:55.907Z,12.80
2023-04-06T05:08:53.962Z,13.02
2023-04-06T05:13:52.626Z,12.43
2023-04-06T05:18:53.793Z,13.75
2023-04-06T05:23:51.622Z,11.25
2023-04-06T05:28:49.639Z,12.38
2023-04-06T05:33:48.227Z,10.88
2023-04-06T05:38:48.671Z,11.23
2023-04-06T05:44:09.545Z,13.32
2023-04-06T05:49:07.200Z,11.55
2023-04-06T05:54:06.084Z,11.68
2023-04-06T05:59:03.915Z,12.68
2023-04-06T06:04:03.121Z,11.68
2023-04-06T06:09:03.816Z,11.98
2023-04-06T06:14:04.727Z,12.13
2023-04-06T06:19:06.678Z,12.07
2023-04-06T06:24:04.276Z,11.43
2023-04-06T06:29:01.406Z,12.25
2023-04-06T06:33:59.112Z,13.05
2023-04-06T06:38:57.362Z,11.15
2023-04-06T06:43:54.496Z,12.00
2023-04-06T06:48:56.330Z,12.85
2023-04-06T06:53:53.457Z,10.55
2023-04-06T06:58:54.257Z,12.73
2023-04-06T07:03:53.846Z,11.60
2023-04-06T07:08:51.349Z,11.65
2023-04-06T07:13:48.375Z,11.82
2023-04-06T07:18:46.478Z,11.48
2023-04-06T07:23:43.974Z,11.00
2023-04-06T07:28:40.920Z,12.23
2023-04-06T07:33:38.776Z,11.30
2023-04-06T07:38:36.951Z,10.80
2023-04-06T07:43:34.135Z,11.07
2023-04-06T07:48:31.192Z,11.85
2023-04-06T07:53:28.438Z,12.23
2023-04-06T07:58:26.475Z,11.35
2023-04-06T08:03:26.043Z,11.05
2023-04-06T08:08:24.192Z,12.23
2023-04-06T08:13:21.445Z,11.13
2023-04-06T08:18:19.118Z,10.23
2023-04-06T08:23:17.757Z,9.88
2023-04-06T08:28:15.488Z,11.07
2023-04-06T08:33:12.833Z,9.38
2023-04-06T08:38:10.870Z,9.80
2023-04-06T08:43:11.921Z,10.38
2023-04-06T08:48:10.130Z,10.60
2023-04-06T08:53:08.323Z,8.75
2023-04-06T08:58:08.202Z,10.73
2023-04-06T09:03:08.035Z,10.70
2023-04-06T09:08:05.891Z,10.80
2023-04-06T09:13:07.082Z,9.25
2023-04-06T09:18:04.345Z,11.13
2023-04-06T09:23:03.905Z,12.43
2023-04-06T09:28:03.423Z,11.93
2023-04-06T09:33:01.754Z,11.40
2023-04-06T09:37:58.753Z,10.80
2023-04-06T09:42:57.999Z,11.15
2023-04-06T09:47:56.846Z,11.65
2023-04-06T09:52:59.150Z,10.35
2023-04-06T09:58:02.191Z,10.48
2023-04-06T10:03:11.271Z,10.50
2023-04-06T10:08:11.134Z,9.18
2023-04-06T10:13:08.546Z,11.50
2023-04-06T10:18:07.890Z,9.32
2023-04-06T10:23:16.497Z,11.35
2023-04-06T10:28:20.701Z,10.45
2023-04-06T10:33:19.303Z,10.85
2023-04-06T10:38:21.556Z,10.27
2023-04-06T10:43:24.361Z,9.70
2023-04-06T10:48:21.523Z,9.95
2023-04-06T10:53:24.827Z,9.05
2023-04-06T10:58:29.318Z,10.15
2023-04-06T11:03:30.270Z,11.05
2023-04-06T11:08:29.752Z,9.40
2023-04-06T11:13:38.505Z,9.45
2023-04-06T11:18:35.856Z,8.52
2023-04-06T11:23:33.648Z,10.38
2023-04-06T11:28:30.992Z,9.77
2023-04-06T11:33:30.519Z,9.63
2023-04-06T11:38:33.239Z,9.38
2023-04-06T11:43:35.610Z,9.90
2023-04-06T11:48:32.856Z,9.25
2023-04-06T11:53:30.274Z,7.93
2023-04-06T11:58:27.773Z,8.50
2023-04-06T12:03:28.734Z,10.18
2023-04-06T12:08:26.429Z,8.77
2023-04-06T12:13:23.720Z,7.57
2023-04-06T12:18:21.458Z,8.95
2023-04-06T12:23:25.072Z,7.57
2023-04-06T12:28:23.713Z,8.90
2023-04-06T12:33:23.409Z,8.70
2023-04-06T12:38:21.921Z,8.50
2023-04-06T12:43:19.000Z,8.05
2023-04-06T12:48:16.517Z,8.70
2023-04-06T12:53:13.633Z,7.32
2023-04-06T12:58:17.866Z,7.07
2023-04-06T13:03:15.216Z,7.65
2023-04-06T13:08:12.357Z,7.15
2023-04-06T13:13:09.404Z,8.27
2023-04-06T13:18:08.962Z,6.55
2023-04-06T13:23:06.031Z,6.88
2023-04-06T13:28:03.514Z,7.20
2023-04-06T13:33:14.938Z,6.63
2023-04-06T13:38:13.441Z,6.85
2023-04-06T13:43:11.649Z,6.28
2023-04-06T13:48:08.593Z,6.55
2023-04-06T13:53:08.655Z,6.03
2023-04-06T13:58:06.494Z,6.65
2023-04-06T14:03:03.622Z,5.10
2023-04-06T14:08:03.027Z,5.65
2023-04-06T14:13:00.161Z,5.70
2023-04-06T14:18:05.246Z,5.13
2023-04-06T14:23:04.558Z,5.28
2023-04-06T14:28:02.302Z,5.20
2023-04-06T14:33:00.530Z,6.10
2023-04-06T14:38:00.473Z,6.43
2023-04-06T14:42:59.469Z,5.55
2023-04-06T14:47:56.537Z,5.28
2023-04-06T14:52:53.567Z,5.03
2023-04-06T14:57:59.311Z,7.90
2023-04-06T15:03:08.270Z,4.65
2023-04-06T15:08:06.079Z,4.80
2023-04-06T15:13:03.701Z,6.40
2023-04-06T15:18:02.682Z,4.95
2023-04-06T15:23:03.171Z,5.00
2023-04-06T15:28:01.757Z,5.65
2023-04-06T15:33:04.272Z,7.68
2023-04-06T15:38:08.683Z,5.82
2023-04-06T15:43:05.952Z,5.72
2023-04-06T15:48:09.375Z,7.43
2023-04-06T15:53:12.234Z,6.43
2023-04-06T15:58:09.155Z,6.90
2023-04-06T16:03:08.211Z,5.60
2023-04-06T16:08:08.071Z,6.22
2023-04-06T16:13:16.608Z,7.05
2023-04-06T16:18:15.413Z,5.45
2023-04-06T16:23:16.748Z,5.40
2023-04-06T16:28:13.733Z,5.43
2023-04-06T16:33:10.945Z,5.82
2023-04-06T16:38:10.721Z,5.75
2023-04-06T16:43:09.273Z,5.38
2023-04-06T16:48:06.333Z,4.90
2023-04-06T16:53:06.199Z,4.60
2023-04-06T16:58:09.814Z,5.00
2023-04-06T17:03:07.169Z,5.53
2023-04-06T17:08:04.434Z,4.45
2023-04-06T17:13:37.707Z,3.90
2023-04-06T17:18:34.642Z,4.72
2023-04-06T17:23:31.908Z,3.92
2023-04-06T17:28:31.016Z,4.45
2023-04-06T17:33:32.999Z,4.65
2023-04-06T17:38:31.137Z,4.43
2023-04-06T17:43:28.185Z,4.70
2023-04-06T17:48:34.874Z,4.38
2023-04-06T17:53:33.815Z,7.45
2023-04-06T17:58:31.079Z,6.05
2023-04-06T18:03:30.612Z,5.45
2023-04-06T18:08:35.771Z,7.28
2023-04-06T18:13:32.950Z,8.20
2023-04-06T18:18:29.926Z,8.32
2023-04-06T18:23:26.841Z,6.40
2023-04-06T18:28:24.860Z,4.75
2023-04-06T18:33:23.366Z,4.82
2023-04-06T18:38:21.015Z,4.72
2023-04-06T18:43:18.002Z,7.22
2023-04-06T18:48:25.542Z,4.93
2023-04-06T18:53:22.683Z,4.63
2023-04-06T18:58:26.387Z,5.00
2023-04-06T19:03:24.094Z,4.70
2023-04-06T19:08:23.095Z,5.63
2023-04-06T19:13:20.133Z,6.45
2023-04-06T19:18:19.110Z,5.85
2023-04-06T19:23:24.941Z,4.70
2023-04-06T19:28:22.070Z,6.55
2023-04-06T19:33:19.031Z,5.70
2023-04-06T19:38:17.205Z,6.00
2023-04-06T19:43:14.292Z,5.45
2023-04-06T19:48:11.548Z,6.28
2023-04-06T19:53:08.991Z,6.25
2023-04-06T19:58:06.956Z,5.82
2023-04-06T20:03:04.282Z,6.47
2023-04-06T20:08:01.500Z,7.13
2023-04-06T20:12:59.956Z,5.65
2023-04-06T20:18:12.497Z,5.65
2023-04-06T20:23:12.142Z,6.35
2023-04-06T20:28:09.868Z,9.38
2023-04-06T20:33:07.888Z,7.15
2023-04-06T20:38:04.978Z,6.22
2023-04-06T20:43:05.142Z,6.88
2023-04-06T20:48:02.520Z,6.22
2023-04-06T20:53:02.863Z,6.05
2023-04-06T20:57:59.931Z,6.35
2023-04-06T21:02:56.933Z,6.93
2023-04-06T21:07:53.860Z,7.10
2023-04-06T21:12:51.403Z,6.32
2023-04-06T21:17:48.376Z,6.03
2023-04-06T21:22:45.477Z,5.88
2023-04-06T21:27:43.955Z,7.43
2023-04-06T21:32:41.684Z,6.40
2023-04-06T21:37:40.333Z,6.10
2023-04-06T21:42:40.053Z,7.20
2023-04-06T21:47:39.379Z,6.78
2023-04-06T21:52:37.101Z,5.90
2023-04-06T21:57:34.082Z,6.40
2023-04-06T22:02:31.634Z,6.50
2023-04-06T22:07:28.767Z,7.10
2023-04-06T22:12:26.389Z,6.30
2023-04-06T22:17:23.387Z,6.65
2023-04-06T22:22:20.373Z,7.07
2023-04-06T22:27:19.723Z,6.60
2023-04-06T22:32:17.293Z,6.38
2023-04-06T22:37:14.215Z,6.85
2023-04-06T22:42:11.130Z,7.07
2023-04-06T22:47:08.033Z,7.45
2023-04-06T22:52:05.725Z,6.65
2023-04-06T22:57:02.588Z,7.22
2023-04-06T23:01:59.657Z,7.45
2023-04-06T23:07:02.781Z,7.10
2023-04-06T23:12:00.527Z,6.55
2023-04-06T23:16:57.780Z,6.32
2023-04-06T23:21:55.727Z,7.00
2023-04-06T23:26:52.554Z,7.30
2023-04-06T23:31:50.398Z,8.00
2023-04-06T23:36:47.508Z,7.93
2023-04-06T23:41:44.443Z,7.35
2023-04-06T23:46:41.448Z,7.97
2023-04-06T23:51:39.216Z,8.05
2023-04-06T23:56:36.438Z,7.78
